createdAt,value
2019-05-23T00:00:38.991Z,13.41
2019-05-23T00:01:19.643Z,13.3
2019-05-23T00:02:00.216Z,13.44
2019-05-23T00:02:40.813Z,13.39
2019-05-23T00:03:21.361Z,13.35
2019-05-23T00:04:01.952Z,13.41
2019-05-23T00:04:42.548Z,13.47
2019-05-23T00:05:23.114Z,13.42
2019-05-23T00:06:03.673Z,13.44
2019-05-23T00:06:44.226Z,13.42
2019-05-23T00:07:24.772Z,13.41
2019-05-23T00:08:05.338Z,13.41
2019-05-23T00:08:45.924Z,13.38
2019-05-23T00:09:26.485Z,13.44
2019-05-23T00:10:07.057Z,13.42
2019-05-23T00:10:47.629Z,13.42
2019-05-23T00:11:28.173Z,13.47
2019-05-23T00:12:08.729Z,13.49
2019-05-23T00:12:49.300Z,13.44
2019-05-23T00:13:29.878Z,13.46
2019-05-23T00:14:10.471Z,13.44
2019-05-23T00:14:51.051Z,13.44
2019-05-23T00:15:31.606Z,13.56
2019-05-23T00:16:12.167Z,13.41
2019-05-23T00:16:52.745Z,13.42
2019-05-23T00:17:33.354Z,13.39
2019-05-23T00:18:13.911Z,13.39
2019-05-23T00:18:54.472Z,13.37
2019-05-23T00:19:35.099Z,13.37
2019-05-23T00:20:15.650Z,13.38
2019-05-23T00:20:56.201Z,13.42
2019-05-23T00:21:36.748Z,13.38
2019-05-23T00:22:17.320Z,13.33
2019-05-23T00:22:57.887Z,13.37
2019-05-23T00:23:38.472Z,13.41
2019-05-23T00:24:19.056Z,13.39
2019-05-23T00:24:59.595Z,13.39
2019-05-23T00:25:40.150Z,13.37
2019-05-23T00:26:20.762Z,13.38
2019-05-23T00:27:01.332Z,13.37
2019-05-23T00:27:41.907Z,13.38
2019-05-23T00:28:22.516Z,13.35
2019-05-23T00:29:09.819Z,13.39
2019-05-23T00:29:43.652Z,13.38
2019-05-23T00:30:24.212Z,13.44
2019-05-23T00:31:04.783Z,13.44
2019-05-23T00:31:45.464Z,13.39
2019-05-23T00:32:26.030Z,13.39
2019-05-23T00:33:06.598Z,13.41
2019-05-23T00:33:47.153Z,13.39
2019-05-23T00:34:27.725Z,13.53
2019-05-23T00:35:08.280Z,13.52
2019-05-23T00:35:48.846Z,13.38
2019-05-23T00:36:29.420Z,13.44
2019-05-23T00:37:09.975Z,13.38
2019-05-23T00:37:50.556Z,13.39
2019-05-23T00:38:31.119Z,13.35
2019-05-23T00:39:11.675Z,13.33
2019-05-23T00:39:52.238Z,13.38
2019-05-23T00:40:32.797Z,13.42
2019-05-23T00:41:13.357Z,13.38
2019-05-23T00:44:27.283Z,13.35
2019-05-23T00:45:07.845Z,13.33
2019-05-23T00:45:48.467Z,13.27
2019-05-23T00:46:29.022Z,13.2
2019-05-23T00:47:09.609Z,13.2
2019-05-23T00:47:50.126Z,13.2
2019-05-23T00:48:30.707Z,13.25
2019-05-23T00:49:11.299Z,13.2
2019-05-23T00:49:51.879Z,13.23
2019-05-23T00:50:32.444Z,13.22
2019-05-23T00:51:13.031Z,13.23
2019-05-23T00:51:53.603Z,13.19
2019-05-23T00:52:34.178Z,13.37
2019-05-23T00:53:14.756Z,13.3
2019-05-23T00:53:55.329Z,13.27
2019-05-23T00:54:35.957Z,13.22
2019-05-23T00:55:16.526Z,13.38
2019-05-23T00:55:57.083Z,13.3
2019-05-23T00:56:37.660Z,13.3
2019-05-23T00:57:18.337Z,13.35
2019-05-23T00:57:59.008Z,13.3
2019-05-23T00:58:39.452Z,13.31
2019-05-23T00:59:26.885Z,13.33
2019-05-23T01:00:00.670Z,13.31
2019-05-23T01:00:41.220Z,13.3
2019-05-23T01:01:21.794Z,13.35
2019-05-23T01:02:02.377Z,13.31
2019-05-23T01:02:42.932Z,13.28
2019-05-23T01:03:23.480Z,13.22
2019-05-23T01:04:04.046Z,13.22
2019-05-23T01:04:44.615Z,13.23
2019-05-23T01:05:25.163Z,13.27
2019-05-23T01:06:05.753Z,13.22
2019-05-23T01:06:46.361Z,13.19
2019-05-23T01:07:26.921Z,13.31
2019-05-23T01:08:07.480Z,13.28
2019-05-23T01:08:48.071Z,13.2
2019-05-23T01:09:28.642Z,13.23
2019-05-23T01:10:09.214Z,13.15
2019-05-23T01:10:49.779Z,13.18
2019-05-23T01:11:30.329Z,13.23
2019-05-23T01:12:10.905Z,13.22
2019-05-23T01:12:51.501Z,13.22
2019-05-23T01:13:32.080Z,13.23
2019-05-23T01:14:12.656Z,13.31
2019-05-23T01:14:53.224Z,13.25
2019-05-23T01:15:33.807Z,13.23
2019-05-23T01:16:14.413Z,13.23
2019-05-23T01:16:54.991Z,13.25
2019-05-23T01:17:35.570Z,13.12
2019-05-23T01:18:16.143Z,13.12
2019-05-23T01:18:56.730Z,13.11
2019-05-23T01:19:37.300Z,13.12
2019-05-23T01:20:17.869Z,13.15
2019-05-23T01:20:58.447Z,13.15
2019-05-23T01:21:39.016Z,13.12
2019-05-23T01:22:19.643Z,13.13
2019-05-23T01:23:00.193Z,13.05
2019-05-23T01:23:40.759Z,13.16
2019-05-23T01:24:21.342Z,13.08
2019-05-23T01:25:01.895Z,13.11
2019-05-23T01:25:42.554Z,13.05
2019-05-23T01:26:23.044Z,13.12
2019-05-23T01:27:03.618Z,13.12
2019-05-23T01:27:44.195Z,13.04
2019-05-23T01:28:24.773Z,13.09
2019-05-23T01:29:05.357Z,13.11
2019-05-23T01:29:49.458Z,13.16
2019-05-23T01:30:26.484Z,13.16
2019-05-23T01:31:07.033Z,13.18
2019-05-23T01:31:47.607Z,13.22
2019-05-23T01:32:28.207Z,13.12
2019-05-23T01:33:08.775Z,13.18
2019-05-23T01:33:49.341Z,13.25
2019-05-23T01:34:29.935Z,13.15
2019-05-23T01:35:10.504Z,13.22
2019-05-23T01:35:51.091Z,13.15
2019-05-23T01:36:31.681Z,13.13
2019-05-23T01:37:12.253Z,13.13
2019-05-23T01:37:52.817Z,13.11
2019-05-23T01:38:33.381Z,13.08
2019-05-23T01:39:13.932Z,13.04
2019-05-23T01:39:54.535Z,13.09
2019-05-23T01:40:35.104Z,13.09
2019-05-23T01:41:15.690Z,13.05
2019-05-23T01:41:56.237Z,13.05
2019-05-23T01:42:36.853Z,13.05
2019-05-23T01:43:17.444Z,13.04
2019-05-23T01:43:58.008Z,13.12
2019-05-23T01:44:38.580Z,13.08
2019-05-23T01:45:19.167Z,13.13
2019-05-23T01:45:59.726Z,13.11
2019-05-23T01:46:40.291Z,13.15
2019-05-23T01:47:20.851Z,13.13
2019-05-23T01:48:01.443Z,13.12
2019-05-23T01:48:42.019Z,13.15
2019-05-23T01:49:22.596Z,13.16
2019-05-23T01:50:03.161Z,13.11
2019-05-23T01:50:43.763Z,13.11
2019-05-23T01:51:24.417Z,13.08
2019-05-23T01:52:04.985Z,13.13
2019-05-23T01:52:45.565Z,13.08
2019-05-23T01:53:26.148Z,13.15
2019-05-23T01:54:06.729Z,13.08
2019-05-23T01:54:47.291Z,13.11
2019-05-23T01:55:27.886Z,13.09
2019-05-23T01:56:08.501Z,13.12
2019-05-23T01:56:49.069Z,13.12
2019-05-23T01:57:29.643Z,13.05
2019-05-23T01:58:10.235Z,13.12
2019-05-23T01:58:50.832Z,13.09
2019-05-23T01:59:31.412Z,13.12
2019-05-23T02:00:12.178Z,13.05
2019-05-23T02:00:52.578Z,13.05
2019-05-23T02:01:33.141Z,13.15
2019-05-23T02:02:13.703Z,13.11
2019-05-23T02:02:54.281Z,13.19
2019-05-23T02:03:34.986Z,13.16
2019-05-23T02:04:15.540Z,13.08
2019-05-23T02:04:56.093Z,13.11
2019-05-23T02:05:36.659Z,13.16
2019-05-23T02:06:17.235Z,13.11
2019-05-23T02:06:57.842Z,13.15
2019-05-23T02:07:38.478Z,13.09
2019-05-23T02:08:19.022Z,13.12
2019-05-23T02:08:59.649Z,13.18
2019-05-23T02:09:40.253Z,13.09
2019-05-23T02:10:20.841Z,13.08
2019-05-23T02:11:01.441Z,13.09
2019-05-23T02:11:42.003Z,13.08
2019-05-23T02:12:22.575Z,13.08
2019-05-23T02:13:03.240Z,13.04
2019-05-23T02:13:43.678Z,13.08
2019-05-23T02:14:24.232Z,13.05
2019-05-23T02:15:04.790Z,13.08
2019-05-23T02:15:45.396Z,13.12
2019-05-23T02:16:25.965Z,13.11
2019-05-23T02:17:06.527Z,13.08
2019-05-23T02:17:47.119Z,13.11
2019-05-23T02:18:27.642Z,13.04
2019-05-23T02:19:08.385Z,13.12
2019-05-23T02:19:48.964Z,13.01
2019-05-23T02:20:29.520Z,13.11
2019-05-23T02:21:10.097Z,13.11
2019-05-23T02:21:50.649Z,13.05
2019-05-23T02:22:31.235Z,13.08
2019-05-23T02:23:11.798Z,13.05
2019-05-23T02:23:52.368Z,13.01
2019-05-23T02:24:32.933Z,13.01
2019-05-23T02:25:13.493Z,13.05
2019-05-23T02:25:54.071Z,13.05
2019-05-23T02:26:34.642Z,13
2019-05-23T02:27:15.205Z,12.98
2019-05-23T02:27:55.785Z,12.97
2019-05-23T02:28:36.383Z,12.95
2019-05-23T02:29:16.940Z,12.97
2019-05-23T02:29:57.549Z,13
2019-05-23T02:30:38.131Z,12.9
2019-05-23T02:31:18.676Z,12.94
2019-05-23T02:31:59.248Z,12.9
2019-05-23T02:32:39.807Z,12.98
2019-05-23T02:33:20.383Z,12.98
2019-05-23T02:34:00.937Z,12.9
2019-05-23T02:34:41.506Z,12.9
2019-05-23T02:35:22.080Z,12.93
2019-05-23T02:36:02.646Z,12.9
2019-05-23T02:36:43.213Z,12.9
2019-05-23T02:37:23.878Z,12.91
2019-05-23T02:38:04.438Z,12.9
2019-05-23T02:38:45.014Z,12.95
2019-05-23T02:39:25.601Z,12.94
2019-05-23T02:40:06.172Z,12.86
2019-05-23T02:40:46.738Z,12.91
2019-05-23T02:41:27.361Z,12.91
2019-05-23T02:42:07.876Z,12.93
2019-05-23T02:42:48.475Z,12.95
2019-05-23T02:43:29.031Z,12.9
2019-05-23T02:44:09.611Z,12.91
2019-05-23T02:44:50.173Z,12.9
2019-05-23T02:45:30.733Z,12.97
2019-05-23T02:46:11.319Z,12.86
2019-05-23T02:46:51.881Z,12.86
2019-05-23T02:47:32.485Z,12.86
2019-05-23T02:48:13.060Z,12.95
2019-05-23T02:48:53.651Z,12.91
2019-05-23T02:49:34.222Z,12.93
2019-05-23T02:50:14.828Z,12.83
2019-05-23T02:50:55.409Z,12.87
2019-05-23T02:51:35.985Z,12.9
2019-05-23T02:52:16.563Z,12.82
2019-05-23T02:52:57.143Z,12.87
2019-05-23T02:53:37.782Z,12.82
2019-05-23T02:54:18.335Z,12.91
2019-05-23T02:54:58.902Z,12.87
2019-05-23T02:55:39.476Z,12.91
2019-05-23T02:56:20.021Z,12.79
2019-05-23T02:57:00.580Z,12.83
2019-05-23T02:57:41.128Z,12.82
2019-05-23T02:58:21.678Z,12.82
2019-05-23T02:59:02.251Z,12.79
2019-05-23T02:59:42.821Z,12.86
2019-05-23T03:00:23.366Z,12.8
2019-05-23T03:01:03.931Z,12.85
2019-05-23T03:01:44.517Z,12.78
2019-05-23T03:02:25.048Z,12.76
2019-05-23T03:03:05.610Z,12.7
2019-05-23T03:03:46.185Z,12.67
2019-05-23T03:04:26.757Z,12.7
2019-05-23T03:05:07.308Z,12.75
2019-05-23T03:05:47.894Z,12.75
2019-05-23T03:06:28.456Z,12.73
2019-05-23T03:07:09.167Z,12.7
2019-05-23T03:07:49.754Z,12.76
2019-05-23T03:08:30.340Z,12.76
2019-05-23T03:09:10.871Z,12.76
2019-05-23T03:09:51.437Z,12.73
2019-05-23T03:10:31.998Z,12.7
2019-05-23T03:11:12.578Z,12.8
2019-05-23T03:11:53.136Z,12.76
2019-05-23T03:12:33.753Z,12.8
2019-05-23T03:13:14.329Z,12.73
2019-05-23T03:13:54.894Z,12.79
2019-05-23T03:14:35.465Z,12.62
2019-05-23T03:15:16.022Z,12.75
2019-05-23T03:15:56.582Z,12.61
2019-05-23T03:16:37.156Z,12.76
2019-05-23T03:17:17.714Z,12.76
2019-05-23T03:17:58.281Z,12.75
2019-05-23T03:18:38.857Z,12.6
2019-05-23T03:19:19.424Z,12.58
2019-05-23T03:20:00.111Z,12.67
2019-05-23T03:20:40.678Z,12.62
2019-05-23T03:21:21.237Z,12.61
2019-05-23T03:22:01.820Z,12.57
2019-05-23T03:22:42.364Z,12.62
2019-05-23T03:23:22.934Z,12.6
2019-05-23T03:24:03.554Z,12.5
2019-05-23T03:24:44.112Z,12.6
2019-05-23T03:25:24.969Z,12.61
2019-05-23T03:26:05.680Z,12.57
2019-05-23T03:26:46.268Z,12.68
2019-05-23T03:27:26.898Z,12.6
2019-05-23T03:28:07.469Z,12.6
2019-05-23T03:28:48.038Z,12.57
2019-05-23T03:32:02.465Z,12.61
2019-05-23T03:32:43.049Z,12.55
2019-05-23T03:33:23.622Z,12.61
2019-05-23T03:34:04.175Z,12.53
2019-05-23T03:34:44.799Z,12.61
2019-05-23T03:35:25.447Z,12.65
2019-05-23T03:36:06.007Z,12.6
2019-05-23T03:36:46.570Z,12.55
2019-05-23T03:37:27.106Z,12.58
2019-05-23T03:38:07.690Z,12.65
2019-05-23T03:38:48.267Z,12.6
2019-05-23T03:39:28.839Z,12.6
2019-05-23T03:40:09.403Z,12.53
2019-05-23T03:40:50.020Z,12.61
2019-05-23T03:41:30.721Z,12.57
2019-05-23T03:42:11.266Z,12.53
2019-05-23T03:42:51.818Z,12.49
2019-05-23T03:43:32.390Z,12.43
2019-05-23T03:44:12.953Z,12.47
2019-05-23T03:44:53.548Z,12.47
2019-05-23T03:45:39.050Z,12.45
2019-05-23T03:46:14.756Z,12.47
2019-05-23T03:46:55.296Z,12.49
2019-05-23T03:47:35.854Z,12.49
2019-05-23T03:48:16.453Z,12.45
2019-05-23T03:48:57.056Z,12.45
2019-05-23T03:49:37.629Z,12.46
2019-05-23T03:50:18.193Z,12.42
2019-05-23T03:50:58.748Z,12.43
2019-05-23T03:51:39.310Z,12.5
2019-05-23T03:52:19.906Z,12.5
2019-05-23T03:53:00.481Z,12.46
2019-05-23T03:53:41.082Z,12.5
2019-05-23T03:54:21.657Z,12.5
2019-05-23T03:55:02.200Z,12.5
2019-05-23T03:55:42.796Z,12.49
2019-05-23T03:56:23.345Z,12.49
2019-05-23T03:57:04.032Z,12.46
2019-05-23T03:57:44.607Z,12.49
2019-05-23T03:58:25.177Z,12.47
2019-05-23T03:59:05.729Z,12.46
2019-05-23T03:59:46.302Z,12.42
2019-05-23T04:00:26.851Z,12.46
2019-05-23T04:01:07.463Z,12.49
2019-05-23T04:01:49.129Z,12.45
2019-05-23T04:02:28.525Z,12.43
2019-05-23T04:03:09.205Z,12.5
2019-05-23T04:03:49.659Z,12.45
2019-05-23T04:04:30.264Z,12.45
2019-05-23T04:05:10.878Z,12.39
2019-05-23T04:05:51.427Z,12.45
2019-05-23T04:06:31.974Z,12.43
2019-05-23T04:07:12.550Z,12.45
2019-05-23T04:07:53.135Z,12.43
2019-05-23T04:08:33.690Z,12.45
2019-05-23T04:09:14.253Z,12.4
2019-05-23T04:09:54.848Z,12.42
2019-05-23T04:10:35.414Z,12.37
2019-05-23T04:11:15.989Z,12.42
2019-05-23T04:11:56.618Z,12.42
2019-05-23T04:12:37.160Z,12.47
2019-05-23T04:13:17.758Z,12.42
2019-05-23T04:13:58.357Z,12.45
2019-05-23T04:14:38.926Z,12.43
2019-05-23T04:15:19.510Z,12.47
2019-05-23T04:16:00.118Z,12.49
2019-05-23T04:16:40.690Z,12.39
2019-05-23T04:17:21.268Z,12.43
2019-05-23T04:18:01.843Z,12.46
2019-05-23T04:18:42.409Z,12.36
2019-05-23T04:19:22.965Z,12.37
2019-05-23T04:20:03.565Z,12.36
2019-05-23T04:20:44.110Z,12.45
2019-05-23T04:21:24.680Z,12.36
2019-05-23T04:22:05.245Z,12.35
2019-05-23T04:22:45.808Z,12.39
2019-05-23T04:23:26.378Z,12.31
2019-05-23T04:24:06.952Z,12.36
2019-05-23T04:24:47.563Z,12.35
2019-05-23T04:25:28.330Z,12.39
2019-05-23T04:26:08.913Z,12.39
2019-05-23T04:26:49.530Z,12.39
2019-05-23T04:27:30.100Z,12.39
2019-05-23T04:28:10.664Z,12.36
2019-05-23T04:28:51.250Z,12.28
2019-05-23T04:29:31.831Z,12.31
2019-05-23T04:30:12.384Z,12.28
2019-05-23T04:30:52.994Z,12.37
2019-05-23T04:31:33.547Z,12.31
2019-05-23T04:32:14.139Z,12.31
2019-05-23T04:32:54.715Z,12.31
2019-05-23T04:33:35.312Z,12.32
2019-05-23T04:34:15.935Z,12.32
2019-05-23T04:34:56.495Z,12.32
2019-05-23T04:35:37.074Z,12.39
2019-05-23T04:36:17.636Z,12.32
2019-05-23T04:36:58.253Z,12.29
2019-05-23T04:37:38.829Z,12.32
2019-05-23T04:38:19.385Z,12.36
2019-05-23T04:38:59.936Z,12.36
2019-05-23T04:39:40.498Z,12.35
2019-05-23T04:40:21.094Z,12.31
2019-05-23T04:41:01.690Z,12.32
2019-05-23T04:41:42.272Z,12.35
2019-05-23T04:42:22.841Z,12.35
2019-05-23T04:43:03.461Z,12.31
2019-05-23T04:43:44.028Z,12.35
2019-05-23T04:44:24.644Z,12.36
2019-05-23T04:45:05.193Z,12.32
2019-05-23T04:45:45.774Z,12.24
2019-05-23T04:46:26.425Z,12.25
2019-05-23T04:47:06.896Z,12.25
2019-05-23T04:47:47.485Z,12.32
2019-05-23T04:48:28.088Z,12.31
2019-05-23T04:49:08.676Z,12.31
2019-05-23T04:49:49.218Z,12.39
2019-05-23T04:50:29.827Z,12.29
2019-05-23T04:51:10.407Z,12.35
2019-05-23T04:51:50.964Z,12.35
2019-05-23T04:52:31.555Z,12.29
2019-05-23T04:53:12.150Z,12.35
2019-05-23T04:53:52.720Z,12.27
2019-05-23T04:54:33.338Z,12.31
2019-05-23T04:55:13.921Z,12.36
2019-05-23T04:55:54.526Z,12.39
2019-05-23T04:56:35.107Z,12.36
2019-05-23T04:57:15.650Z,12.36
2019-05-23T04:57:56.213Z,12.37
2019-05-23T04:58:36.802Z,12.31
2019-05-23T04:59:17.359Z,12.29
2019-05-23T04:59:57.943Z,12.36
2019-05-23T05:00:38.549Z,12.31
2019-05-23T05:01:19.117Z,12.37
2019-05-23T05:01:59.679Z,12.37
2019-05-23T05:02:40.290Z,12.37
2019-05-23T05:03:20.867Z,12.42
2019-05-23T05:04:01.457Z,12.49
2019-05-23T05:04:42.048Z,12.45
2019-05-23T05:05:22.629Z,12.49
2019-05-23T05:06:03.239Z,12.46
2019-05-23T05:06:43.805Z,12.43
2019-05-23T05:07:24.415Z,12.42
2019-05-23T05:08:05.225Z,12.42
2019-05-23T05:08:45.590Z,12.45
2019-05-23T05:09:26.223Z,12.49
2019-05-23T05:10:06.845Z,12.43
2019-05-23T05:10:47.407Z,12.5
2019-05-23T05:11:30.300Z,12.46
2019-05-23T05:12:08.557Z,12.46
2019-05-23T05:12:49.130Z,12.46
2019-05-23T05:13:29.689Z,12.49
2019-05-23T05:14:10.260Z,12.49
2019-05-23T05:14:50.916Z,12.5
2019-05-23T05:15:31.509Z,12.61
2019-05-23T05:16:12.111Z,12.64
2019-05-23T05:16:52.645Z,12.8
2019-05-23T05:17:33.209Z,12.9
2019-05-23T05:18:13.801Z,13.08
2019-05-23T05:18:55.216Z,13.25
2019-05-23T05:19:34.980Z,13.33
2019-05-23T05:20:15.572Z,13.39
2019-05-23T05:20:56.162Z,13.37
2019-05-23T05:21:36.740Z,13.37
2019-05-23T05:22:17.327Z,13.42
2019-05-23T05:22:57.945Z,13.46
2019-05-23T05:23:38.520Z,13.56
2019-05-23T05:24:19.113Z,13.6
2019-05-23T05:24:59.755Z,13.71
2019-05-23T05:25:40.358Z,13.79
2019-05-23T05:26:20.915Z,13.9
2019-05-23T05:27:01.481Z,13.99
2019-05-23T05:27:42.086Z,14.11
2019-05-23T05:28:22.662Z,14.08
2019-05-23T05:29:03.293Z,14.17
2019-05-23T05:29:43.892Z,14.22
2019-05-23T05:30:24.474Z,14.23
2019-05-23T05:31:05.073Z,14.43
2019-05-23T05:31:45.676Z,14.47
2019-05-23T05:32:41.412Z,14.55
2019-05-23T05:33:06.870Z,14.77
2019-05-23T05:33:47.454Z,14.81
2019-05-23T05:34:28.116Z,14.97
2019-05-23T05:35:08.669Z,15.06
2019-05-23T05:35:49.250Z,15.28
2019-05-23T05:36:29.857Z,15.33
2019-05-23T05:37:10.407Z,15.37
2019-05-23T05:37:50.975Z,15.44
2019-05-23T05:38:31.601Z,15.59
2019-05-23T05:39:12.154Z,15.54
2019-05-23T05:39:52.781Z,15.57
2019-05-23T05:40:33.407Z,15.65
2019-05-23T05:41:14.023Z,15.8
2019-05-23T05:41:54.569Z,15.94
2019-05-23T05:42:35.243Z,15.95
2019-05-23T05:45:49.380Z,16.17
2019-05-23T05:46:29.960Z,16.32
2019-05-23T05:47:10.493Z,16.47
2019-05-23T05:47:51.052Z,16.6
2019-05-23T05:48:31.636Z,16.61
2019-05-23T05:49:12.224Z,16.65
2019-05-23T05:49:52.839Z,16.83
2019-05-23T05:50:33.425Z,16.91
2019-05-23T05:52:46.282Z,17.16
2019-05-23T05:53:26.860Z,17.34
2019-05-23T05:54:07.605Z,17.41
2019-05-23T05:54:48.006Z,17.44
2019-05-23T05:55:28.576Z,17.6
2019-05-23T05:56:09.153Z,17.6
2019-05-23T05:56:49.714Z,17.52
2019-05-23T05:57:30.290Z,17.45
2019-05-23T05:58:10.855Z,17.52
2019-05-23T05:58:51.455Z,17.6
2019-05-23T05:59:32.046Z,17.78
2019-05-23T06:00:13.313Z,17.76
2019-05-23T06:00:53.270Z,17.87
2019-05-23T06:01:34.678Z,17.9
2019-05-23T06:02:14.404Z,17.92
2019-05-23T06:03:04.031Z,17.95
2019-05-23T06:03:35.559Z,17.92
2019-05-23T06:04:16.109Z,17.95
2019-05-23T06:04:56.683Z,18.05
2019-05-23T06:05:37.284Z,18.05
2019-05-23T06:06:17.825Z,18.01
2019-05-23T06:06:58.426Z,18.08
2019-05-23T06:07:39.001Z,18.1
2019-05-23T06:08:19.616Z,18.11
2019-05-23T06:09:00.182Z,18.23
2019-05-23T06:09:40.746Z,18.25
2019-05-23T06:10:21.349Z,18.43
2019-05-23T06:11:01.921Z,18.38
2019-05-23T06:11:42.496Z,18.41
2019-05-23T06:12:23.074Z,18.52
2019-05-23T06:13:03.644Z,18.63
2019-05-23T06:13:44.224Z,18.65
2019-05-23T06:14:24.815Z,18.77
2019-05-23T06:15:05.450Z,18.86
2019-05-23T06:15:46.004Z,18.81
2019-05-23T06:16:26.576Z,18.95
2019-05-23T06:17:07.174Z,19.07
2019-05-23T06:17:47.761Z,19.04
2019-05-23T06:18:28.339Z,19.16
2019-05-23T06:19:08.900Z,19.26
2019-05-23T06:19:49.518Z,19.33
2019-05-23T06:20:30.143Z,19.37
2019-05-23T06:21:10.704Z,19.4
2019-05-23T06:21:51.336Z,19.3
2019-05-23T06:22:31.887Z,19.3
2019-05-23T06:23:12.456Z,19.16
2019-05-23T06:23:53.042Z,19.19
2019-05-23T06:24:43.803Z,19.26
2019-05-23T06:25:14.207Z,19.26
2019-05-23T06:25:54.769Z,19.16
2019-05-23T06:26:35.338Z,19.08
2019-05-23T06:27:15.927Z,19.02
2019-05-23T06:27:56.499Z,19.04
2019-05-23T06:28:37.075Z,19.15
2019-05-23T06:29:17.680Z,19.16
2019-05-23T06:29:58.239Z,19.3
2019-05-23T06:30:38.806Z,19.39
2019-05-23T06:31:19.390Z,19.49
2019-05-23T06:32:00.020Z,19.45
2019-05-23T06:32:40.610Z,19.52
2019-05-23T06:33:23.572Z,19.4
2019-05-23T06:34:01.945Z,19.37
2019-05-23T06:34:42.572Z,19.34
2019-05-23T06:35:23.158Z,19.29
2019-05-23T06:36:03.727Z,19.39
2019-05-23T06:36:44.357Z,19.33
2019-05-23T06:37:24.903Z,19.27
2019-05-23T06:38:05.487Z,19.27
2019-05-23T06:38:46.065Z,19.29
2019-05-23T06:39:26.638Z,19.34
2019-05-23T06:40:07.205Z,19.33
2019-05-23T06:40:47.797Z,19.27
2019-05-23T06:41:28.375Z,19.15
2019-05-23T06:42:09.029Z,19.08
2019-05-23T06:42:50.675Z,19
2019-05-23T06:43:30.156Z,18.99
2019-05-23T06:44:10.730Z,18.99
2019-05-23T06:44:51.293Z,18.92
2019-05-23T06:45:31.879Z,19
2019-05-23T06:46:12.448Z,18.98
2019-05-23T06:46:53.028Z,18.95
2019-05-23T06:47:33.609Z,19
2019-05-23T06:48:14.245Z,19.07
2019-05-23T06:48:54.799Z,19.14
2019-05-23T06:49:35.373Z,19.18
2019-05-23T06:50:15.998Z,19.27
2019-05-23T06:50:56.558Z,19.31
2019-05-23T06:51:37.220Z,19.37
2019-05-23T06:52:17.901Z,19.34
2019-05-23T06:52:58.482Z,19.41
2019-05-23T06:53:39.083Z,19.48
2019-05-23T06:54:19.657Z,19.41
2019-05-23T06:55:00.270Z,19.62
2019-05-23T06:55:40.846Z,19.62
2019-05-23T06:56:21.412Z,19.56
2019-05-23T06:57:01.985Z,19.56
2019-05-23T06:57:42.597Z,19.66
2019-05-23T06:58:23.630Z,19.64
2019-05-23T06:59:03.781Z,19.69
2019-05-23T06:59:44.334Z,19.73
2019-05-23T07:00:25.115Z,19.73
2019-05-23T07:01:05.533Z,19.77
2019-05-23T07:01:46.147Z,19.81
2019-05-23T07:02:30.775Z,19.59
2019-05-23T07:03:07.342Z,19.7
2019-05-23T07:03:47.910Z,19.69
2019-05-23T07:04:28.499Z,19.63
2019-05-23T07:05:09.106Z,19.67
2019-05-23T07:05:49.672Z,19.73
2019-05-23T07:06:30.254Z,19.77
2019-05-23T07:07:10.849Z,19.73
2019-05-23T07:07:51.426Z,19.79
2019-05-23T07:08:31.993Z,19.86
2019-05-23T07:09:12.614Z,19.76
2019-05-23T07:09:53.230Z,19.76
2019-05-23T07:10:33.842Z,19.69
2019-05-23T07:11:14.406Z,19.77
2019-05-23T07:11:55.005Z,19.92
2019-05-23T07:12:35.576Z,19.96
2019-05-23T07:13:16.140Z,19.85
2019-05-23T07:13:56.696Z,19.95
2019-05-23T07:14:37.349Z,19.89
2019-05-23T07:15:17.920Z,19.76
2019-05-23T07:15:58.500Z,19.82
2019-05-23T07:16:39.137Z,19.89
2019-05-23T07:17:19.694Z,19.88
2019-05-23T07:18:00.274Z,19.88
2019-05-23T07:18:40.960Z,19.89
2019-05-23T07:19:21.535Z,19.84
2019-05-23T07:20:02.104Z,19.82
2019-05-23T07:20:42.691Z,19.62
2019-05-23T07:21:23.253Z,19.55
2019-05-23T07:22:03.845Z,19.51
2019-05-23T07:22:44.438Z,19.49
2019-05-23T07:23:25.032Z,19.62
2019-05-23T07:24:05.577Z,19.56
2019-05-23T07:24:57.270Z,19.69
2019-05-23T07:25:26.722Z,19.81
2019-05-23T07:26:07.674Z,19.76
2019-05-23T07:26:48.239Z,19.84
2019-05-23T07:27:28.817Z,19.88
2019-05-23T07:28:09.418Z,19.91
2019-05-23T07:28:49.969Z,19.84
2019-05-23T07:29:30.569Z,19.71
2019-05-23T07:30:11.140Z,19.67
2019-05-23T07:30:51.745Z,19.55
2019-05-23T07:31:35.370Z,19.55
2019-05-23T07:32:12.871Z,19.29
2019-05-23T07:32:53.416Z,19.15
2019-05-23T07:33:34.019Z,19.08
2019-05-23T07:34:14.606Z,18.93
2019-05-23T07:34:55.176Z,18.77
2019-05-23T07:35:35.763Z,18.8
2019-05-23T07:36:16.376Z,18.83
2019-05-23T07:36:56.942Z,18.93
2019-05-23T07:37:37.523Z,18.93
2019-05-23T07:38:18.097Z,18.88
2019-05-23T07:38:58.669Z,19.07
2019-05-23T07:39:39.247Z,19.14
2019-05-23T07:40:19.817Z,19.16
2019-05-23T07:41:00.402Z,19.31
2019-05-23T07:41:41.004Z,19.37
2019-05-23T07:42:21.601Z,19.48
2019-05-23T07:43:02.156Z,19.59
2019-05-23T07:43:42.755Z,19.52
2019-05-23T07:44:23.325Z,19.64
2019-05-23T07:45:03.971Z,19.64
2019-05-23T07:45:44.595Z,19.7
2019-05-23T07:46:25.202Z,19.81
2019-05-23T07:47:05.777Z,19.76
2019-05-23T07:47:46.363Z,19.89
2019-05-23T07:48:26.960Z,19.96
2019-05-23T07:49:07.635Z,19.94
2019-05-23T07:49:48.204Z,19.95
2019-05-23T07:50:28.767Z,19.88
2019-05-23T07:51:09.347Z,19.79
2019-05-23T07:51:49.926Z,19.77
2019-05-23T07:52:30.502Z,19.69
2019-05-23T07:53:11.077Z,19.67
2019-05-23T07:53:51.782Z,19.58
2019-05-23T07:54:32.266Z,19.58
2019-05-23T07:55:12.842Z,19.63
2019-05-23T07:55:53.405Z,19.55
2019-05-23T07:56:33.972Z,19.58
2019-05-23T07:57:14.588Z,19.63
2019-05-23T07:57:55.165Z,19.66
2019-05-23T07:58:35.732Z,19.76
2019-05-23T07:59:16.317Z,19.84
2019-05-23T07:59:56.906Z,19.84
2019-05-23T08:00:37.486Z,19.95
2019-05-23T08:01:18.075Z,19.88
2019-05-23T08:01:58.976Z,19.95
2019-05-23T08:02:39.306Z,20
2019-05-23T08:03:19.848Z,19.99
2019-05-23T08:04:17.864Z,19.89
2019-05-23T08:04:41.153Z,19.86
2019-05-23T08:05:21.702Z,19.86
2019-05-23T08:06:02.281Z,19.88
2019-05-23T08:06:42.879Z,19.92
2019-05-23T08:07:23.449Z,19.89
2019-05-23T08:08:04.311Z,19.86
2019-05-23T08:08:44.622Z,19.91
2019-05-23T08:09:25.185Z,19.91
2019-05-23T08:10:05.733Z,19.88
2019-05-23T08:10:46.323Z,19.86
2019-05-23T08:11:26.901Z,19.86
2019-05-23T08:12:07.486Z,19.77
2019-05-23T08:12:48.063Z,19.71
2019-05-23T08:13:28.681Z,19.77
2019-05-23T08:14:11.943Z,19.69
2019-05-23T08:14:49.831Z,19.71
2019-05-23T08:15:30.423Z,19.71
2019-05-23T08:16:10.992Z,19.59
2019-05-23T08:16:51.558Z,19.55
2019-05-23T08:17:32.142Z,19.63
2019-05-23T08:18:12.721Z,19.64
2019-05-23T08:18:53.298Z,19.69
2019-05-23T08:19:48.470Z,19.73
2019-05-23T08:20:14.422Z,19.81
2019-05-23T08:20:55.011Z,19.85
2019-05-23T08:21:35.575Z,19.92
2019-05-23T08:22:16.148Z,19.86
2019-05-23T08:22:56.737Z,19.94
2019-05-23T08:23:37.297Z,19.92
2019-05-23T08:24:17.851Z,20.02
2019-05-23T08:24:58.427Z,20.07
2019-05-23T08:25:39.004Z,20.03
2019-05-23T08:26:19.611Z,20.06
2019-05-23T08:27:00.163Z,20.16
2019-05-23T08:27:40.745Z,20.13
2019-05-23T08:28:21.313Z,20.19
2019-05-23T08:29:24.501Z,20.25
2019-05-23T08:29:42.606Z,20.26
2019-05-23T08:30:23.179Z,20.29
2019-05-23T08:31:03.807Z,20.31
2019-05-23T08:31:44.368Z,20.14
2019-05-23T08:32:24.983Z,20.1
2019-05-23T08:33:05.556Z,20.13
2019-05-23T08:33:46.118Z,20.22
2019-05-23T08:34:40.388Z,20.07
2019-05-23T08:35:07.331Z,20.13
2019-05-23T08:35:47.896Z,20.13
2019-05-23T08:36:28.597Z,20.16
2019-05-23T08:37:09.156Z,20.07
2019-05-23T08:37:49.887Z,20.11
2019-05-23T08:38:30.479Z,20.14
2019-05-23T08:39:11.059Z,20.24
2019-05-23T08:39:51.632Z,20.28
2019-05-23T08:40:32.211Z,20.32
2019-05-23T08:41:12.791Z,20.39
2019-05-23T08:41:53.368Z,20.43
2019-05-23T08:42:33.952Z,20.52
2019-05-23T08:43:14.678Z,20.52
2019-05-23T08:43:55.167Z,20.56
2019-05-23T08:44:35.730Z,20.59
2019-05-23T08:45:16.329Z,20.58
2019-05-23T08:45:56.904Z,20.6
2019-05-23T08:46:37.609Z,20.66
2019-05-23T08:47:18.225Z,20.69
2019-05-23T08:47:58.874Z,20.67
2019-05-23T08:48:39.455Z,20.75
2019-05-23T08:49:20.024Z,20.78
2019-05-23T08:50:00.611Z,20.74
2019-05-23T08:50:41.183Z,20.84
2019-05-23T08:51:21.766Z,20.85
2019-05-23T08:52:02.349Z,20.85
2019-05-23T08:52:42.913Z,20.92
2019-05-23T08:53:23.481Z,20.8
2019-05-23T08:54:04.071Z,20.87